sensor_id;sensor_type;location;lat;lon;timestamp;pressure;altitude;pressure_sealevel;temperature
77414;BMP280;66486;49.992;19.164;2023-04-25T00:01:17;97813.66;;;11.72
77414;BMP280;66486;49.992;19.164;2023-04-25T00:03:44;97809.91;;;11.70
77414;BMP280;66486;49.992;19.164;2023-04-25T00:06:11;97824.28;;;11.67
77414;BMP280;66486;49.992;19.164;2023-04-25T00:08:38;97822.66;;;11.87
77414;BMP280;66486;49.992;19.164;2023-04-25T00:11:04;97817.72;;;11.68
77414;BMP280;66486;49.992;19.164;2023-04-25T00:13:30;97828.06;;;11.87
77414;BMP280;66486;49.992;19.164;2023-04-25T00:15:56;97827.94;;;12.09
77414;BMP280;66486;49.992;19.164;2023-04-25T00:18:24;97831.41;;;12.10
77414;BMP280;66486;49.992;19.164;2023-04-25T00:20:50;97825.25;;;12.00
77414;BMP280;66486;49.992;19.164;2023-04-25T00:23:16;97824.34;;;11.94
77414;BMP280;66486;49.992;19.164;2023-04-25T00:25:47;97827.34;;;12.05
77414;BMP280;66486;49.992;19.164;2023-04-25T00:28:13;97828.22;;;11.93
77414;BMP280;66486;49.992;19.164;2023-04-25T00:30:40;97824.06;;;12.19
77414;BMP280;66486;49.992;19.164;2023-04-25T00:33:07;97830.22;;;12.02
77414;BMP280;66486;49.992;19.164;2023-04-25T00:35:33;97829.28;;;11.95
77414;BMP280;66486;49.992;19.164;2023-04-25T00:38:00;97828.38;;;11.89
77414;BMP280;66486;49.992;19.164;2023-04-25T00:40:26;97819.25;;;11.96
77414;BMP280;66486;49.992;19.164;2023-04-25T00:42:52;97829.09;;;11.81
77414;BMP280;66486;49.992;19.164;2023-04-25T00:45:18;97826.25;;;11.84
77414;BMP280;66486;49.992;19.164;2023-04-25T00:47:45;97819.50;;;11.80
77414;BMP280;66486;49.992;19.164;2023-04-25T00:50:13;97822.00;;;11.65
77414;BMP280;66486;49.992;19.164;2023-04-25T00:52:42;97826.63;;;11.47
77414;BMP280;66486;49.992;19.164;2023-04-25T00:55:09;97824.47;;;11.42
77414;BMP280;66486;49.992;19.164;2023-04-25T00:57:36;97824.41;;;11.72
77414;BMP280;66486;49.992;19.164;2023-04-25T01:00:04;97835.09;;;11.76
77414;BMP280;66486;49.992;19.164;2023-04-25T01:02:32;97827.28;;;11.78
77414;BMP280;66486;49.992;19.164;2023-04-25T01:04:58;97813.69;;;11.81
77414;BMP280;66486;49.992;19.164;2023-04-25T01:07:25;97815.63;;;11.81
77414;BMP280;66486;49.992;19.164;2023-04-25T01:09:51;97816.78;;;11.71
77414;BMP280;66486;49.992;19.164;2023-04-25T01:12:17;97817.84;;;11.73
77414;BMP280;66486;49.992;19.164;2023-04-25T01:14:43;97818.25;;;11.63
77414;BMP280;66486;49.992;19.164;2023-04-25T01:17:10;97825.72;;;11.50
77414;BMP280;66486;49.992;19.164;2023-04-25T01:19:36;97819.19;;;11.69
77414;BMP280;66486;49.992;19.164;2023-04-25T01:22:03;97814.34;;;11.55
77414;BMP280;66486;49.992;19.164;2023-04-25T01:24:31;97833.03;;;11.49
77414;BMP280;66486;49.992;19.164;2023-04-25T01:26:58;97831.84;;;11.50
77414;BMP280;66486;49.992;19.164;2023-04-25T01:29:27;97838.69;;;11.42
77414;BMP280;66486;49.992;19.164;2023-04-25T01:31:53;97835.28;;;11.20
77414;BMP280;66486;49.992;19.164;2023-04-25T01:34:19;97841.69;;;11.44
77414;BMP280;66486;49.992;19.164;2023-04-25T01:36:49;97832.75;;;11.25
77414;BMP280;66486;49.992;19.164;2023-04-25T01:39:15;97842.28;;;11.48
77414;BMP280;66486;49.992;19.164;2023-04-25T01:41:42;97838.63;;;11.24
77414;BMP280;66486;49.992;19.164;2023-04-25T01:44:08;97847.94;;;11.41
77414;BMP280;66486;49.992;19.164;2023-04-25T01:46:34;97836.81;;;11.21
77414;BMP280;66486;49.992;19.164;2023-04-25T01:49:00;97839.38;;;11.24
77414;BMP280;66486;49.992;19.164;2023-04-25T01:51:26;97847.31;;;11.28
77414;BMP280;66486;49.992;19.164;2023-04-25T01:53:52;97845.38;;;11.07
77414;BMP280;66486;49.992;19.164;2023-04-25T01:56:19;97839.75;;;10.92
77414;BMP280;66486;49.992;19.164;2023-04-25T01:58:46;97840.81;;;10.95
77414;BMP280;66486;49.992;19.164;2023-04-25T02:01:12;97850.63;;;10.89
77414;BMP280;66486;49.992;19.164;2023-04-25T02:03:38;97844.84;;;10.69
77414;BMP280;66486;49.992;19.164;2023-04-25T02:06:04;97851.53;;;10.86
77414;BMP280;66486;49.992;19.164;2023-04-25T02:08:30;97855.72;;;10.65
77414;BMP280;66486;49.992;19.164;2023-04-25T02:10:57;97855.09;;;10.61
77414;BMP280;66486;49.992;19.164;2023-04-25T02:13:23;97851.31;;;10.58
77414;BMP280;66486;49.992;19.164;2023-04-25T02:15:49;97863.31;;;10.67
77414;BMP280;66486;49.992;19.164;2023-04-25T02:18:15;97863.59;;;10.81
77414;BMP280;66486;49.992;19.164;2023-04-25T02:20:45;97866.34;;;10.90
77414;BMP280;66486;49.992;19.164;2023-04-25T02:23:11;97860.47;;;10.83
77414;BMP280;66486;49.992;19.164;2023-04-25T02:25:37;97861.41;;;10.67
77414;BMP280;66486;49.992;19.164;2023-04-25T02:28:03;97862.75;;;10.84
77414;BMP280;66486;49.992;19.164;2023-04-25T02:30:29;97863.16;;;10.83
77414;BMP280;66486;49.992;19.164;2023-04-25T02:32:55;97872.78;;;10.71
77414;BMP280;66486;49.992;19.164;2023-04-25T02:35:22;97868.16;;;10.72
77414;BMP280;66486;49.992;19.164;2023-04-25T02:37:48;97864.44;;;10.56
77414;BMP280;66486;49.992;19.164;2023-04-25T02:40:14;97870.41;;;10.51
77414;BMP280;66486;49.992;19.164;2023-04-25T02:42:40;97868.72;;;10.32
77414;BMP280;66486;49.992;19.164;2023-04-25T02:45:06;97874.59;;;10.40
77414;BMP280;66486;49.992;19.164;2023-04-25T02:47:32;97876.00;;;10.32
77414;BMP280;66486;49.992;19.164;2023-04-25T02:49:58;97885.31;;;10.18
77414;BMP280;66486;49.992;19.164;2023-04-25T02:52:24;97891.00;;;10.20
77414;BMP280;66486;49.992;19.164;2023-04-25T02:54:51;97884.88;;;10.20
77414;BMP280;66486;49.992;19.164;2023-04-25T02:57:16;97892.84;;;10.11
77414;BMP280;66486;49.992;19.164;2023-04-25T02:59:42;97889.72;;;10.12
77414;BMP280;66486;49.992;19.164;2023-04-25T03:02:09;97881.75;;;10.09
77414;BMP280;66486;49.992;19.164;2023-04-25T03:04:35;97883.81;;;9.92
77414;BMP280;66486;49.992;19.164;2023-04-25T03:07:01;97894.44;;;10.08
77414;BMP280;66486;49.992;19.164;2023-04-25T03:09:27;97889.72;;;10.12
77414;BMP280;66486;49.992;19.164;2023-04-25T03:11:53;97878.63;;;9.97
77414;BMP280;66486;49.992;19.164;2023-04-25T03:14:19;97886.38;;;9.83
77414;BMP280;66486;49.992;19.164;2023-04-25T03:16:44;97894.56;;;9.92
77414;BMP280;66486;49.992;19.164;2023-04-25T03:19:11;97876.84;;;9.82
77414;BMP280;66486;49.992;19.164;2023-04-25T03:21:37;97880.38;;;10.04
77414;BMP280;66486;49.992;19.164;2023-04-25T03:24:05;97883.50;;;10.03
77414;BMP280;66486;49.992;19.164;2023-04-25T03:26:31;97873.69;;;9.96
77414;BMP280;66486;49.992;19.164;2023-04-25T03:28:57;97880.63;;;10.31
77414;BMP280;66486;49.992;19.164;2023-04-25T03:31:23;97885.91;;;10.35
77414;BMP280;66486;49.992;19.164;2023-04-25T03:33:49;97887.88;;;10.56
77414;BMP280;66486;49.992;19.164;2023-04-25T03:36:15;97881.06;;;10.42
77414;BMP280;66486;49.992;19.164;2023-04-25T03:38:41;97887.19;;;10.43
77414;BMP280;66486;49.992;19.164;2023-04-25T03:41:07;97895.84;;;10.59
77414;BMP280;66486;49.992;19.164;2023-04-25T03:43:33;97893.66;;;10.33
77414;BMP280;66486;49.992;19.164;2023-04-25T03:46:00;97893.78;;;10.17
77414;BMP280;66486;49.992;19.164;2023-04-25T03:48:26;97903.38;;;10.18
77414;BMP280;66486;49.992;19.164;2023-04-25T03:50:53;97900.66;;;10.05
77414;BMP280;66486;49.992;19.164;2023-04-25T03:53:19;97904.44;;;9.95
77414;BMP280;66486;49.992;19.164;2023-04-25T03:55:45;97906.50;;;10.04
77414;BMP280;66486;49.992;19.164;2023-04-25T03:58:11;97907.66;;;10.03
77414;BMP280;66486;49.992;19.164;2023-04-25T04:00:37;97911.22;;;9.99
77414;BMP280;66486;49.992;19.164;2023-04-25T04:03:03;97908.84;;;9.76
77414;BMP280;66486;49.992;19.164;2023-04-25T04:05:29;97913.56;;;9.72
77414;BMP280;66486;49.992;19.164;2023-04-25T04:07:55;97911.09;;;9.90
77414;BMP280;66486;49.992;19.164;2023-04-25T04:10:22;97920.75;;;10.00
77414;BMP280;66486;49.992;19.164;2023-04-25T04:12:48;97914.56;;;10.04
77414;BMP280;66486;49.992;19.164;2023-04-25T04:15:14;97915.38;;;10.00
77414;BMP280;66486;49.992;19.164;2023-04-25T04:17:40;97921.22;;;9.99
77414;BMP280;66486;49.992;19.164;2023-04-25T04:20:07;97928.81;;;9.75
77414;BMP280;66486;49.992;19.164;2023-04-25T04:22:34;97924.84;;;9.67
77414;BMP280;66486;49.992;19.164;2023-04-25T04:25:00;97924.94;;;9.64
77414;BMP280;66486;49.992;19.164;2023-04-25T04:27:26;97930.88;;;9.84
77414;BMP280;66486;49.992;19.164;2023-04-25T04:29:54;97937.16;;;9.65
77414;BMP280;66486;49.992;19.164;2023-04-25T04:32:20;97936.66;;;9.70
77414;BMP280;66486;49.992;19.164;2023-04-25T04:34:46;97929.31;;;9.58
77414;BMP280;66486;49.992;19.164;2023-04-25T04:37:13;97940.53;;;9.94
77414;BMP280;66486;49.992;19.164;2023-04-25T04:39:38;97925.47;;;9.71
77414;BMP280;66486;49.992;19.164;2023-04-25T04:42:05;97929.78;;;9.69
77414;BMP280;66486;49.992;19.164;2023-04-25T04:44:31;97927.09;;;9.81
77414;BMP280;66486;49.992;19.164;2023-04-25T04:47:01;97921.53;;;10.01
77414;BMP280;66486;49.992;19.164;2023-04-25T04:49:27;97917.94;;;9.79
77414;BMP280;66486;49.992;19.164;2023-04-25T04:51:53;97927.44;;;10.09
77414;BMP280;66486;49.992;19.164;2023-04-25T04:54:20;97932.03;;;9.83
77414;BMP280;66486;49.992;19.164;2023-04-25T04:56:46;97929.81;;;10.07
77414;BMP280;66486;49.992;19.164;2023-04-25T04:59:12;97944.84;;;10.04
77414;BMP280;66486;49.992;19.164;2023-04-25T05:01:38;97923.34;;;9.91
77414;BMP280;66486;49.992;19.164;2023-04-25T05:04:04;97924.72;;;10.21
77414;BMP280;66486;49.992;19.164;2023-04-25T05:06:31;97930.13;;;10.09
77414;BMP280;66486;49.992;19.164;2023-04-25T05:08:57;97930.78;;;10.13
77414;BMP280;66486;49.992;19.164;2023-04-25T05:11:24;97928.50;;;10.24
77414;BMP280;66486;49.992;19.164;2023-04-25T05:13:53;97927.97;;;10.29
77414;BMP280;66486;49.992;19.164;2023-04-25T05:16:20;97927.41;;;10.21
77414;BMP280;66486;49.992;19.164;2023-04-25T05:18:46;97929.03;;;10.44
77414;BMP280;66486;49.992;19.164;2023-04-25T05:21:13;97924.16;;;10.39
77414;BMP280;66486;49.992;19.164;2023-04-25T05:23:38;97937.28;;;10.49
77414;BMP280;66486;49.992;19.164;2023-04-25T05:26:05;97928.97;;;10.56
77414;BMP280;66486;49.992;19.164;2023-04-25T05:28:31;97927.47;;;10.68
77414;BMP280;66486;49.992;19.164;2023-04-25T05:30:57;97923.84;;;10.62
77414;BMP280;66486;49.992;19.164;2023-04-25T05:33:23;97928.97;;;10.56
77414;BMP280;66486;49.992;19.164;2023-04-25T05:35:49;97929.56;;;10.51
77414;BMP280;66486;49.992;19.164;2023-04-25T05:38:15;97925.28;;;10.76
77414;BMP280;66486;49.992;19.164;2023-04-25T05:40:42;97930.16;;;10.55
77414;BMP280;66486;49.992;19.164;2023-04-25T05:43:07;97937.94;;;10.88
77414;BMP280;66486;49.992;19.164;2023-04-25T05:45:33;97931.66;;;10.69
77414;BMP280;66486;49.992;19.164;2023-04-25T05:47:59;97935.63;;;10.77
77414;BMP280;66486;49.992;19.164;2023-04-25T05:50:25;97932.50;;;11.00
77414;BMP280;66486;49.992;19.164;2023-04-25T05:52:52;97923.78;;;10.96
77414;BMP280;66486;49.992;19.164;2023-04-25T05:55:18;97939.94;;;11.18
77414;BMP280;66486;49.992;19.164;2023-04-25T05:57:44;97939.69;;;11.25
77414;BMP280;66486;49.992;19.164;2023-04-25T06:00:12;97937.63;;;11.29
77414;BMP280;66486;49.992;19.164;2023-04-25T06:02:38;97939.63;;;11.59
77414;BMP280;66486;49.992;19.164;2023-04-25T06:05:05;97935.19;;;11.44
77414;BMP280;66486;49.992;19.164;2023-04-25T06:07:31;97941.41;;;11.53
77414;BMP280;66486;49.992;19.164;2023-04-25T06:09:57;97940.28;;;11.42
77414;BMP280;66486;49.992;19.164;2023-04-25T06:12:23;97933.09;;;11.39
77414;BMP280;66486;49.992;19.164;2023-04-25T06:14:49;97941.53;;;11.50
77414;BMP280;66486;49.992;19.164;2023-04-25T06:17:15;97946.94;;;11.59
77414;BMP280;66486;49.992;19.164;2023-04-25T06:19:41;97944.38;;;11.46
77414;BMP280;66486;49.992;19.164;2023-04-25T06:22:07;97947.81;;;11.56
77414;BMP280;66486;49.992;19.164;2023-04-25T06:24:34;97951.84;;;11.51
77414;BMP280;66486;49.992;19.164;2023-04-25T06:27:01;97949.00;;;11.55
77414;BMP280;66486;49.992;19.164;2023-04-25T06:29:27;97944.22;;;11.50
77414;BMP280;66486;49.992;19.164;2023-04-25T06:31:52;97950.09;;;11.57
77414;BMP280;66486;49.992;19.164;2023-04-25T06:34:19;97942.38;;;11.68
77414;BMP280;66486;49.992;19.164;2023-04-25T06:36:45;97942.97;;;11.72
77414;BMP280;66486;49.992;19.164;2023-04-25T06:39:11;97947.06;;;11.55
77414;BMP280;66486;49.992;19.164;2023-04-25T06:41:37;97950.22;;;11.32
77414;BMP280;66486;49.992;19.164;2023-04-25T06:44:03;97956.59;;;11.69
77414;BMP280;66486;49.992;19.164;2023-04-25T06:46:29;97956.91;;;11.71
77414;BMP280;66486;49.992;19.164;2023-04-25T06:48:55;97951.19;;;11.69
77414;BMP280;66486;49.992;19.164;2023-04-25T06:51:21;97955.31;;;11.82
77414;BMP280;66486;49.992;19.164;2023-04-25T06:53:47;97952.53;;;11.64
77414;BMP280;66486;49.992;19.164;2023-04-25T06:56:13;97951.44;;;11.53
77414;BMP280;66486;49.992;19.164;2023-04-25T06:58:39;97955.00;;;11.80
77414;BMP280;66486;49.992;19.164;2023-04-25T07:01:05;97949.94;;;11.82
77414;BMP280;66486;49.992;19.164;2023-04-25T07:03:31;97952.91;;;11.75
77414;BMP280;66486;49.992;19.164;2023-04-25T07:05:57;97949.97;;;11.61
77414;BMP280;66486;49.992;19.164;2023-04-25T07:08:23;97938.59;;;11.66
77414;BMP280;66486;49.992;19.164;2023-04-25T07:10:49;97940.59;;;11.74
77414;BMP280;66486;49.992;19.164;2023-04-25T07:13:15;97943.16;;;12.18
77414;BMP280;66486;49.992;19.164;2023-04-25T07:15:41;97952.28;;;12.20
77414;BMP280;66486;49.992;19.164;2023-04-25T07:18:07;97952.16;;;12.24
77414;BMP280;66486;49.992;19.164;2023-04-25T07:20:33;97950.53;;;12.35
77414;BMP280;66486;49.992;19.164;2023-04-25T07:22:59;97950.63;;;12.14
77414;BMP280;66486;49.992;19.164;2023-04-25T07:25:25;97949.03;;;12.16
77414;BMP280;66486;49.992;19.164;2023-04-25T07:27:51;97947.38;;;12.28
77414;BMP280;66486;49.992;19.164;2023-04-25T07:30:17;97953.88;;;12.00
77414;BMP280;66486;49.992;19.164;2023-04-25T07:32:44;97954.84;;;12.24
77414;BMP280;66486;49.992;19.164;2023-04-25T07:35:10;97951.56;;;12.29
77414;BMP280;66486;49.992;19.164;2023-04-25T07:37:36;97955.19;;;12.35
77414;BMP280;66486;49.992;19.164;2023-04-25T07:40:03;97947.03;;;12.08
77414;BMP280;66486;49.992;19.164;2023-04-25T07:42:30;97953.31;;;12.14
77414;BMP280;66486;49.992;19.164;2023-04-25T07:44:56;97948.84;;;12.11
77414;BMP280;66486;49.992;19.164;2023-04-25T07:47:22;97951.00;;;12.43
77414;BMP280;66486;49.992;19.164;2023-04-25T07:49:48;97946.25;;;12.56
77414;BMP280;66486;49.992;19.164;2023-04-25T07:52:14;97953.75;;;12.79
77414;BMP280;66486;49.992;19.164;2023-04-25T07:54:40;97960.06;;;12.85
77414;BMP280;66486;49.992;19.164;2023-04-25T07:57:06;97941.16;;;13.12
77414;BMP280;66486;49.992;19.164;2023-04-25T07:59:32;97941.88;;;13.22
77414;BMP280;66486;49.992;19.164;2023-04-25T08:01:58;97948.78;;;13.23
77414;BMP280;66486;49.992;19.164;2023-04-25T08:04:24;97939.66;;;12.84
77414;BMP280;66486;49.992;19.164;2023-04-25T08:06:51;97942.50;;;12.81
77414;BMP280;66486;49.992;19.164;2023-04-25T08:09:18;97939.63;;;13.29
77414;BMP280;66486;49.992;19.164;2023-04-25T08:11:44;97938.16;;;13.10
77414;BMP280;66486;49.992;19.164;2023-04-25T08:14:11;97943.88;;;12.67
77414;BMP280;66486;49.992;19.164;2023-04-25T08:16:37;97936.34;;;12.98
77414;BMP280;66486;49.992;19.164;2023-04-25T08:19:03;97934.53;;;13.13
77414;BMP280;66486;49.992;19.164;2023-04-25T08:21:29;97938.59;;;12.91
77414;BMP280;66486;49.992;19.164;2023-04-25T08:23:55;97944.75;;;13.09
77414;BMP280;66486;49.992;19.164;2023-04-25T08:26:22;97942.31;;;13.20
77414;BMP280;66486;49.992;19.164;2023-04-25T08:28:48;97937.94;;;13.41
77414;BMP280;66486;49.992;19.164;2023-04-25T08:31:13;97931.66;;;13.44
77414;BMP280;66486;49.992;19.164;2023-04-25T08:33:40;97935.97;;;13.51
77414;BMP280;66486;49.992;19.164;2023-04-25T08:36:06;97943.78;;;13.58
77414;BMP280;66486;49.992;19.164;2023-04-25T08:38:32;97933.88;;;13.87
77414;BMP280;66486;49.992;19.164;2023-04-25T08:40:59;97934.72;;;13.70
77414;BMP280;66486;49.992;19.164;2023-04-25T08:43:29;97942.94;;;13.75
77414;BMP280;66486;49.992;19.164;2023-04-25T08:45:58;97937.16;;;13.91
77414;BMP280;66486;49.992;19.164;2023-04-25T08:48:27;97939.88;;;13.50
77414;BMP280;66486;49.992;19.164;2023-04-25T08:50:56;97937.72;;;13.63
77414;BMP280;66486;49.992;19.164;2023-04-25T08:53:27;97940.56;;;13.59
77414;BMP280;66486;49.992;19.164;2023-04-25T08:55:54;97939.19;;;13.73
77414;BMP280;66486;49.992;19.164;2023-04-25T08:58:21;97943.94;;;13.87
77414;BMP280;66486;49.992;19.164;2023-04-25T09:00:48;97940.06;;;14.12
77414;BMP280;66486;49.992;19.164;2023-04-25T09:03:14;97934.38;;;13.77
77414;BMP280;66486;49.992;19.164;2023-04-25T09:05:41;97944.66;;;13.55
77414;BMP280;66486;49.992;19.164;2023-04-25T09:08:07;97936.25;;;13.53
77414;BMP280;66486;49.992;19.164;2023-04-25T09:10:34;97950.78;;;13.64
77414;BMP280;66486;49.992;19.164;2023-04-25T09:13:11;97939.06;;;13.67
77414;BMP280;66486;49.992;19.164;2023-04-25T09:15:57;97948.56;;;13.54
77414;BMP280;66486;49.992;19.164;2023-04-25T09:18:33;97953.75;;;13.75
77414;BMP280;66486;49.992;19.164;2023-04-25T09:21:11;97948.28;;;13.93
77414;BMP280;66486;49.992;19.164;2023-04-25T09:23:47;97946.66;;;13.78
77414;BMP280;66486;49.992;19.164;2023-04-25T09:26:15;97950.47;;;14.04
77414;BMP280;66486;49.992;19.164;2023-04-25T09:28:42;97935.59;;;13.25
77414;BMP280;66486;49.992;19.164;2023-04-25T09:31:12;97943.00;;;13.57
77414;BMP280;66486;49.992;19.164;2023-04-25T09:33:38;97948.19;;;13.10
77414;BMP280;66486;49.992;19.164;2023-04-25T09:36:09;97947.75;;;13.02
77414;BMP280;66486;49.992;19.164;2023-04-25T09:38:43;97946.53;;;13.21
77414;BMP280;66486;49.992;19.164;2023-04-25T09:41:10;97946.97;;;13.29
77414;BMP280;66486;49.992;19.164;2023-04-25T09:43:37;97948.53;;;13.63
77414;BMP280;66486;49.992;19.164;2023-04-25T09:46:08;97946.06;;;13.83
77414;BMP280;66486;49.992;19.164;2023-04-25T09:48:35;97936.84;;;13.89
77414;BMP280;66486;49.992;19.164;2023-04-25T09:51:12;97944.56;;;13.82
77414;BMP280;66486;49.992;19.164;2023-04-25T09:53:46;97943.22;;;13.77
77414;BMP280;66486;49.992;19.164;2023-04-25T09:56:15;97936.09;;;13.98
77414;BMP280;66486;49.992;19.164;2023-04-25T09:58:42;97940.56;;;13.68
77414;BMP280;66486;49.992;19.164;2023-04-25T10:01:11;97932.25;;;13.81
77414;BMP280;66486;49.992;19.164;2023-04-25T10:03:38;97929.91;;;13.65
77414;BMP280;66486;49.992;19.164;2023-04-25T10:06:11;97935.84;;;13.78
77414;BMP280;66486;49.992;19.164;2023-04-25T10:08:38;97931.94;;;13.88
77414;BMP280;66486;49.992;19.164;2023-04-25T10:11:07;97930.97;;;14.24
77414;BMP280;66486;49.992;19.164;2023-04-25T10:13:35;97940.41;;;13.95
77414;BMP280;66486;49.992;19.164;2023-04-25T10:16:04;97933.44;;;14.36
77414;BMP280;66486;49.992;19.164;2023-04-25T10:18:31;97938.50;;;14.43
77414;BMP280;66486;49.992;19.164;2023-04-25T10:21:00;97936.06;;;14.31
77414;BMP280;66486;49.992;19.164;2023-04-25T10:23:27;97932.94;;;14.61
77414;BMP280;66486;49.992;19.164;2023-04-25T10:25:54;97929.63;;;14.66
77414;BMP280;66486;49.992;19.164;2023-04-25T10:28:21;97925.44;;;14.80
77414;BMP280;66486;49.992;19.164;2023-04-25T10:31:04;97928.97;;;14.10
77414;BMP280;66486;49.992;19.164;2023-04-25T10:33:39;97931.13;;;13.64
77414;BMP280;66486;49.992;19.164;2023-04-25T10:36:14;97926.88;;;13.72
77414;BMP280;66486;49.992;19.164;2023-04-25T10:38:42;97919.63;;;13.78
77414;BMP280;66486;49.992;19.164;2023-04-25T10:41:09;97919.09;;;13.65
77414;BMP280;66486;49.992;19.164;2023-04-25T10:46:17;97918.88;;;13.77
77414;BMP280;66486;49.992;19.164;2023-04-25T10:48:55;97914.63;;;14.18
77414;BMP280;66486;49.992;19.164;2023-04-25T10:51:30;97912.97;;;14.21
77414;BMP280;66486;49.992;19.164;2023-04-25T10:56:27;97914.63;;;14.18
77414;BMP280;66486;49.992;19.164;2023-04-25T10:59:16;97916.38;;;14.45
77414;BMP280;66486;49.992;19.164;2023-04-25T11:01:47;97919.56;;;14.82
77414;BMP280;66486;49.992;19.164;2023-04-25T11:04:33;97912.28;;;14.88
77414;BMP280;66486;49.992;19.164;2023-04-25T11:09:29;97918.09;;;14.42
77414;BMP280;66486;49.992;19.164;2023-04-25T11:11:56;97909.13;;;14.13
77414;BMP280;66486;49.992;19.164;2023-04-25T11:14:24;97907.50;;;14.30
77414;BMP280;66486;49.992;19.164;2023-04-25T11:16:57;97918.47;;;14.50
77414;BMP280;66486;49.992;19.164;2023-04-25T11:19:24;97922.72;;;14.65
77414;BMP280;66486;49.992;19.164;2023-04-25T11:21:51;97921.88;;;14.59
77414;BMP280;66486;49.992;19.164;2023-04-25T11:24:26;97922.00;;;14.18
77414;BMP280;66486;49.992;19.164;2023-04-25T11:26:52;97924.09;;;13.90
77414;BMP280;66486;49.992;19.164;2023-04-25T11:29:22;97929.75;;;13.68
77414;BMP280;66486;49.992;19.164;2023-04-25T11:31:48;97920.56;;;13.75
77414;BMP280;66486;49.992;19.164;2023-04-25T11:34:18;97921.94;;;13.70
77414;BMP280;66486;49.992;19.164;2023-04-25T11:36:45;97926.13;;;14.04
77414;BMP280;66486;49.992;19.164;2023-04-25T11:39:12;97923.56;;;14.10
77414;BMP280;66486;49.992;19.164;2023-04-25T11:41:38;97929.59;;;14.28
77414;BMP280;66486;49.992;19.164;2023-04-25T11:44:04;97924.81;;;14.23
77414;BMP280;66486;49.992;19.164;2023-04-25T11:46:33;97923.09;;;14.11
77414;BMP280;66486;49.992;19.164;2023-04-25T11:49:00;97922.00;;;14.18
77414;BMP280;66486;49.992;19.164;2023-04-25T11:51:26;97927.53;;;14.23
77414;BMP280;66486;49.992;19.164;2023-04-25T11:53:53;97932.47;;;14.48
77414;BMP280;66486;49.992;19.164;2023-04-25T11:56:20;97931.66;;;14.33
77414;BMP280;66486;49.992;19.164;2023-04-25T11:59:00;97925.03;;;14.34
77414;BMP280;66486;49.992;19.164;2023-04-25T12:01:34;97933.97;;;13.69
77414;BMP280;66486;49.992;19.164;2023-04-25T12:04:12;97936.69;;;13.93
77414;BMP280;66486;49.992;19.164;2023-04-25T12:06:38;97931.94;;;13.79
77414;BMP280;66486;49.992;19.164;2023-04-25T12:09:09;97913.47;;;13.77
77414;BMP280;66486;49.992;19.164;2023-04-25T12:11:52;97924.84;;;14.14
77414;BMP280;66486;49.992;19.164;2023-04-25T12:14:27;97920.03;;;14.42
77414;BMP280;66486;49.992;19.164;2023-04-25T12:17:02;97926.53;;;14.12
77414;BMP280;66486;49.992;19.164;2023-04-25T12:19:34;97932.19;;;13.99
77414;BMP280;66486;49.992;19.164;2023-04-25T12:22:01;97925.84;;;13.69
77414;BMP280;66486;49.992;19.164;2023-04-25T12:24:29;97923.66;;;13.91
77414;BMP280;66486;49.992;19.164;2023-04-25T12:29:27;97939.38;;;13.69
77414;BMP280;66486;49.992;19.164;2023-04-25T12:31:54;97939.53;;;13.66
77414;BMP280;66486;49.992;19.164;2023-04-25T12:34:22;97947.28;;;13.82
77414;BMP280;66486;49.992;19.164;2023-04-25T12:36:49;97940.03;;;13.55
77414;BMP280;66486;49.992;19.164;2023-04-25T12:39:22;97937.81;;;13.36
77414;BMP280;66486;49.992;19.164;2023-04-25T12:41:49;97938.88;;;13.71
77414;BMP280;66486;49.992;19.164;2023-04-25T12:44:15;97936.72;;;13.42
77414;BMP280;66486;49.992;19.164;2023-04-25T12:46:41;97939.25;;;13.55
77414;BMP280;66486;49.992;19.164;2023-04-25T12:49:07;97916.03;;;13.30
77414;BMP280;66486;49.992;19.164;2023-04-25T12:51:34;97934.22;;;13.39
77414;BMP280;66486;49.992;19.164;2023-04-25T12:54:02;97932.84;;;13.34
77414;BMP280;66486;49.992;19.164;2023-04-25T12:56:30;97935.41;;;13.28
77414;BMP280;66486;49.992;19.164;2023-04-25T12:58:57;97937.47;;;13.52
77414;BMP280;66486;49.992;19.164;2023-04-25T13:01:24;97926.53;;;13.37
77414;BMP280;66486;49.992;19.164;2023-04-25T13:03:50;97936.72;;;13.42
77414;BMP280;66486;49.992;19.164;2023-04-25T13:06:17;97920.72;;;13.29
77414;BMP280;66486;49.992;19.164;2023-04-25T13:08:43;97928.03;;;13.47
77414;BMP280;66486;49.992;19.164;2023-04-25T13:11:09;97926.94;;;13.54
77414;BMP280;66486;49.992;19.164;2023-04-25T13:13:37;97930.72;;;13.47
77414;BMP280;66486;49.992;19.164;2023-04-25T13:16:04;97929.13;;;13.31
77414;BMP280;66486;49.992;19.164;2023-04-25T13:18:31;97926.50;;;13.46
77414;BMP280;66486;49.992;19.164;2023-04-25T13:20:57;97927.16;;;13.74
77414;BMP280;66486;49.992;19.164;2023-04-25T13:23:25;97920.94;;;13.59
77414;BMP280;66486;49.992;19.164;2023-04-25T13:25:52;97932.19;;;13.57
77414;BMP280;66486;49.992;19.164;2023-04-25T13:28:18;97931.53;;;13.29
77414;BMP280;66486;49.992;19.164;2023-04-25T13:30:44;97923.25;;;13.33
77414;BMP280;66486;49.992;19.164;2023-04-25T13:33:11;97929.13;;;13.31
77414;BMP280;66486;49.992;19.164;2023-04-25T13:35:37;97919.44;;;13.58
77414;BMP280;66486;49.992;19.164;2023-04-25T13:38:04;97928.91;;;13.86
77414;BMP280;66486;49.992;19.164;2023-04-25T13:40:30;97927.16;;;13.83
77414;BMP280;66486;49.992;19.164;2023-04-25T13:42:56;97923.00;;;13.64
77414;BMP280;66486;49.992;19.164;2023-04-25T13:45:22;97916.81;;;13.72
77414;BMP280;66486;49.992;19.164;2023-04-25T13:47:48;97922.97;;;13.22
77414;BMP280;66486;49.992;19.164;2023-04-25T13:50:14;97921.75;;;13.23
77414;BMP280;66486;49.992;19.164;2023-04-25T13:52:42;97925.84;;;13.18
77414;BMP280;66486;49.992;19.164;2023-04-25T13:55:08;97934.06;;;13.24
77414;BMP280;66486;49.992;19.164;2023-04-25T13:57:35;97926.97;;;13.45
77414;BMP280;66486;49.992;19.164;2023-04-25T14:00:03;97934.47;;;13.91
77414;BMP280;66486;49.992;19.164;2023-04-25T14:02:37;97927.44;;;14.09
77414;BMP280;66486;49.992;19.164;2023-04-25T14:05:04;97935.28;;;14.07
77414;BMP280;66486;49.992;19.164;2023-04-25T14:07:31;97923.56;;;14.10